Time;durP1;ratioP1;P1;durP2;ratioP2;P2;SDS_P1;SDS_P2;PMS_P1;PMS_P2;Temp;Humidity;BMP_temperature;BMP_pressure;BME280_temperature;BME280_humidity;BME280_pressure;Samples;Min_cycle;Max_cycle;Signal;HPM_P1;HPM_P2
2023/05/03 00:01:54;;;;;;;13.38;11.90;;;7.80;99.90;;;;;;5049225;28;20660;-90
2023/05/03 00:04:22;;;;;;;11.18;9.93;;;7.70;99.90;;;;;;5049898;28;20226;-89
2023/05/03 00:06:48;;;;;;;10.70;8.48;;;7.70;99.90;;;;;;5054949;28;20198;-90
2023/05/03 00:09:17;;;;;;;16.13;13.30;;;7.50;99.90;;;;;;5043549;28;20218;-89
2023/05/03 00:11:43;;;;;;;19.17;14.68;;;7.50;99.90;;;;;;5045180;28;20232;-89
2023/05/03 00:14:10;;;;;;;8.02;7.07;;;7.60;99.90;;;;;;5041457;28;20225;-90
2023/05/03 00:16:37;;;;;;;7.78;6.82;;;7.60;99.90;;;;;;5058323;28;20205;-90
2023/05/03 00:19:04;;;;;;;14.38;10.77;;;7.40;99.90;;;;;;5055122;28;20651;-89
2023/05/03 00:21:30;;;;;;;16.08;12.55;;;7.30;99.90;;;;;;5050426;28;20217;-91
2023/05/03 00:23:57;;;;;;;16.80;14.68;;;7.40;99.90;;;;;;5047237;28;20201;-90
2023/05/03 00:26:26;;;;;;;19.05;15.25;;;7.60;99.90;;;;;;5039697;28;20194;-89
2023/05/03 00:28:54;;;;;;;8.40;7.50;;;7.70;99.90;;;;;;5049438;28;20222;-91
2023/05/03 00:31:21;;;;;;;12.77;10.77;;;7.70;99.90;;;;;;5049796;28;20202;-89
2023/05/03 00:33:47;;;;;;;11.02;8.60;;;7.50;99.90;;;;;;5036993;28;20198;-91
2023/05/03 00:36:15;;;;;;;7.45;6.70;;;7.30;99.90;;;;;;5048211;28;20198;-90
2023/05/03 00:38:42;;;;;;;9.55;8.55;;;7.30;99.90;;;;;;5045138;28;20383;-90
2023/05/03 00:41:11;;;;;;;9.95;8.20;;;7.20;99.90;;;;;;5018011;28;20640;-90
2023/05/03 00:43:40;;;;;;;9.45;8.40;;;7.20;99.90;;;;;;5058911;28;20206;-86
2023/05/03 00:46:07;;;;;;;8.57;6.70;;;7.20;99.90;;;;;;5055123;28;20199;-89
2023/05/03 00:48:34;;;;;;;8.15;7.35;;;7.10;99.90;;;;;;5031583;28;20198;-89
2023/05/03 00:51:03;;;;;;;13.00;10.38;;;7.00;99.90;;;;;;5049827;28;20205;-90
2023/05/03 00:53:31;;;;;;;13.00;11.07;;;7.20;99.90;;;;;;5038535;28;20897;-89
2023/05/03 00:55:59;;;;;;;24.90;19.58;;;7.30;99.90;;;;;;5044317;28;20246;-89
2023/05/03 00:58:26;;;;;;;34.05;28.17;;;7.40;99.90;;;;;;5039707;28;20214;-90
2023/05/03 01:00:54;;;;;;;36.97;28.35;;;7.50;99.90;;;;;;5039633;28;20208;-90
2023/05/03 01:03:21;;;;;;;51.13;39.60;;;7.50;99.90;;;;;;5049508;28;20201;-90
2023/05/03 01:05:57;;;;;;;32.53;25.92;;;7.60;99.90;;;;;;5042822;28;20202;-91
2023/05/03 01:08:31;;;;;;;32.00;25.75;;;7.60;99.90;;;;;;5052919;28;20216;-90
2023/05/03 01:11:06;;;;;;;30.90;25.58;;;7.50;99.90;;;;;;5042721;28;20205;-86
2023/05/03 01:13:42;;;;;;;12.95;9.73;;;7.40;99.90;;;;;;5045031;28;20269;-89
2023/05/03 01:16:19;;;;;;;7.53;6.35;;;7.40;99.90;;;;;;5048881;28;20202;-90
2023/05/03 01:18:48;;;;;;;8.05;6.40;;;7.10;99.90;;;;;;5046569;28;20235;-90
2023/05/03 01:21:17;;;;;;;12.73;10.02;;;7.00;99.90;;;;;;5050248;28;20214;-90
2023/05/03 01:23:52;;;;;;;23.45;18.38;;;6.80;99.90;;;;;;5051854;28;20202;-90
2023/05/03 01:26:26;;;;;;;9.98;6.90;;;6.80;99.90;;;;;;5052957;28;20194;-89
2023/05/03 01:28:53;;;;;;;16.88;12.32;;;6.90;99.90;;;;;;5052208;28;20222;-89
2023/05/03 01:31:23;;;;;;;18.10;14.93;;;7.00;99.90;;;;;;5069886;28;20205;-86
2023/05/03 01:34:06;;;;;;;15.80;12.45;;;7.10;99.90;;;;;;5062415;28;20535;-86
2023/05/03 01:36:36;;;;;;;6.38;5.60;;;7.20;99.90;;;;;;5057310;28;20209;-89
2023/05/03 01:39:09;;;;;;;7.03;5.82;;;7.10;99.90;;;;;;5056887;28;20229;-88
2023/05/03 01:41:40;;;;;;;8.05;5.80;;;7.00;99.90;;;;;;5064954;28;20344;-90
2023/05/03 01:44:08;;;;;;;6.93;5.32;;;6.90;99.90;;;;;;5052627;28;20201;-90
2023/05/03 01:46:42;;;;;;;7.10;6.28;;;6.80;99.90;;;;;;5057160;28;20190;-90
2023/05/03 01:49:09;;;;;;;7.75;5.50;;;6.90;99.90;;;;;;5030634;28;20203;-89
2023/05/03 01:51:35;;;;;;;6.07;5.47;;;7.00;99.90;;;;;;5053944;28;20198;-90
2023/05/03 01:54:02;;;;;;;11.30;5.45;;;7.10;99.90;;;;;;5051090;28;20202;-90
2023/05/03 01:56:30;;;;;;;15.93;13.32;;;7.10;99.90;;;;;;5052856;28;20210;-89
2023/05/03 01:58:58;;;;;;;20.08;16.17;;;7.10;99.90;;;;;;5054529;28;20226;-90
2023/05/03 02:01:25;;;;;;;7.85;5.75;;;7.30;99.90;;;;;;5049254;28;20201;-89
2023/05/03 02:03:52;;;;;;;6.50;5.90;;;7.40;99.90;;;;;;5048293;28;20206;-89
2023/05/03 02:06:19;;;;;;;20.45;16.17;;;7.30;99.90;;;;;;5055566;28;20212;-90
2023/05/03 02:08:45;;;;;;;11.05;9.65;;;7.40;99.90;;;;;;5030109;28;20210;-90
2023/05/03 02:11:12;;;;;;;7.93;7.13;;;7.70;99.90;;;;;;5052832;28;20198;-90
2023/05/03 02:13:39;;;;;;;9.45;8.38;;;7.70;99.90;;;;;;5049505;28;20198;-90
2023/05/03 02:16:08;;;;;;;7.70;5.53;;;7.70;99.90;;;;;;5049390;28;20213;-92
2023/05/03 02:18:35;;;;;;;6.78;5.50;;;7.60;99.90;;;;;;5054263;28;20248;-91
2023/05/03 02:21:02;;;;;;;6.25;5.65;;;7.40;99.90;;;;;;5048162;28;20194;-90
2023/05/03 02:23:29;;;;;;;19.92;16.27;;;7.30;99.90;;;;;;5051315;28;20199;-87
2023/05/03 02:25:56;;;;;;;14.20;11.85;;;7.50;99.90;;;;;;5051836;28;20207;-90
2023/05/03 02:28:22;;;;;;;13.80;11.88;;;7.70;99.90;;;;;;5055337;28;20210;-92
2023/05/03 02:30:49;;;;;;;9.45;8.13;;;7.70;99.90;;;;;;5054780;28;20202;-91
2023/05/03 02:33:17;;;;;;;14.30;11.77;;;7.80;99.90;;;;;;5052721;28;20194;-91
2023/05/03 02:35:44;;;;;;;6.65;5.80;;;7.70;99.90;;;;;;5044443;28;20194;-90
2023/05/03 02:38:11;;;;;;;6.70;5.97;;;7.60;99.90;;;;;;5048427;28;20209;-90
2023/05/03 02:40:38;;;;;;;11.48;10.05;;;7.40;99.90;;;;;;5047987;28;20198;-90
2023/05/03 02:43:05;;;;;;;12.60;10.02;;;7.40;99.90;;;;;;5051172;28;20281;-90
2023/05/03 02:45:32;;;;;;;7.78;6.38;;;7.70;99.90;;;;;;5045457;28;20209;-91
2023/05/03 02:47:59;;;;;;;11.77;9.90;;;7.80;99.90;;;;;;5032032;28;20206;-91
2023/05/03 02:50:28;;;;;;;6.65;5.82;;;7.90;99.90;;;;;;5022341;28;20197;-91
2023/05/03 02:52:54;;;;;;;10.13;8.35;;;7.80;99.90;;;;;;5053162;28;20198;-89
2023/05/03 02:55:21;;;;;;;11.38;9.00;;;7.70;99.90;;;;;;5048336;28;20202;-86
2023/05/03 02:57:48;;;;;;;5.80;5.20;;;7.80;99.90;;;;;;5048890;28;20202;-91
2023/05/03 03:00:16;;;;;;;8.88;7.18;;;7.70;99.90;;;;;;5045071;28;20234;-91
2023/05/03 03:02:43;;;;;;;5.88;5.18;;;7.70;99.90;;;;;;5043389;28;20206;-90
2023/05/03 03:05:10;;;;;;;8.30;7.38;;;7.70;99.90;;;;;;5053570;28;20201;-88
2023/05/03 03:07:39;;;;;;;9.70;8.00;;;7.70;99.90;;;;;;5044195;28;20702;-88
2023/05/03 03:10:07;;;;;;;6.65;5.53;;;7.80;99.90;;;;;;5022726;28;20578;-90
2023/05/03 03:12:35;;;;;;;10.10;6.70;;;7.90;99.90;;;;;;5047168;28;20198;-90
2023/05/03 03:15:02;;;;;;;6.53;5.53;;;7.80;99.90;;;;;;5035166;28;20211;-88
2023/05/03 03:17:29;;;;;;;7.30;5.72;;;7.70;99.90;;;;;;5034243;28;20242;-90
2023/05/03 03:19:57;;;;;;;6.43;5.72;;;7.60;99.90;;;;;;5047296;28;20222;-89
2023/05/03 03:22:24;;;;;;;9.30;8.10;;;7.50;99.90;;;;;;5047444;28;20608;-87
2023/05/03 03:24:52;;;;;;;7.30;6.60;;;7.50;99.90;;;;;;5045067;28;20281;-91
2023/05/03 03:27:20;;;;;;;10.80;8.30;;;7.80;99.90;;;;;;5043024;28;20205;-88
2023/05/03 03:29:47;;;;;;;8.55;7.55;;;7.90;99.90;;;;;;5039636;28;20230;-90
2023/05/03 03:32:14;;;;;;;7.93;6.95;;;8.10;99.90;;;;;;5043760;28;20849;-90
2023/05/03 03:34:41;;;;;;;6.07;5.47;;;8.10;99.90;;;;;;5048347;28;20202;-90
2023/05/03 03:37:07;;;;;;;8.10;7.30;;;8.00;99.90;;;;;;5028895;28;20462;-90
2023/05/03 03:39:34;;;;;;;8.27;6.82;;;7.90;99.90;;;;;;5045727;28;20218;-88
2023/05/03 03:42:03;;;;;;;6.78;6.18;;;8.00;99.90;;;;;;5051778;28;21157;-91
2023/05/03 03:44:30;;;;;;;6.05;5.45;;;7.90;99.90;;;;;;5039243;28;20210;-92
2023/05/03 03:46:57;;;;;;;9.50;4.80;;;7.90;99.90;;;;;;5041503;28;20213;-91
2023/05/03 03:49:24;;;;;;;6.15;5.40;;;7.70;99.90;;;;;;5041833;28;20667;-91
2023/05/03 03:51:50;;;;;;;5.85;5.13;;;7.50;99.90;;;;;;5042433;28;20194;-92
2023/05/03 03:54:17;;;;;;;7.47;6.03;;;7.40;99.90;;;;;;5052524;28;20210;-90
2023/05/03 03:56:44;;;;;;;6.55;5.85;;;7.40;99.90;;;;;;5050365;28;20234;-89
2023/05/03 03:59:12;;;;;;;6.18;5.57;;;7.60;99.90;;;;;;5050025;28;20233;-89
2023/05/03 04:01:40;;;;;;;7.38;6.68;;;7.70;99.90;;;;;;5043895;28;20293;-90
2023/05/03 04:04:06;;;;;;;6.90;6.20;;;7.70;99.90;;;;;;5040809;28;20202;-91
2023/05/03 04:06:33;;;;;;;6.65;5.13;;;7.80;99.90;;;;;;5044857;28;20202;-89
2023/05/03 04:09:00;;;;;;;5.93;5.32;;;7.80;99.90;;;;;;5035234;28;20925;-91
2023/05/03 04:11:27;;;;;;;6.78;5.68;;;7.70;99.90;;;;;;5035090;28;20249;-88
2023/05/03 04:13:54;;;;;;;6.55;5.78;;;7.60;99.90;;;;;;5047279;28;20195;-91
2023/05/03 04:16:22;;;;;;;6.70;6.10;;;7.50;99.90;;;;;;5048895;28;20202;-90
2023/05/03 04:18:49;;;;;;;5.97;5.47;;;7.50;99.90;;;;;;5043742;28;20216;-90
2023/05/03 04:21:15;;;;;;;6.13;5.53;;;7.50;99.90;;;;;;5042772;28;20206;-90
2023/05/03 04:23:42;;;;;;;7.45;6.50;;;7.50;99.90;;;;;;5046116;28;20575;-91
2023/05/03 04:26:10;;;;;;;8.55;6.20;;;7.50;99.90;;;;;;5047879;28;20198;-89
2023/05/03 04:28:37;;;;;;;6.55;5.95;;;7.60;99.90;;;;;;5039620;28;20198;-89
2023/05/03 04:31:04;;;;;;;7.18;6.40;;;7.90;99.90;;;;;;5043748;28;20203;-91
2023/05/03 04:33:32;;;;;;;8.38;7.30;;;8.00;99.90;;;;;;5042925;28;20214;-89
2023/05/03 04:36:00;;;;;;;11.48;6.85;;;8.20;99.90;;;;;;5045734;28;20205;-90
2023/05/03 04:38:27;;;;;;;10.73;7.60;;;8.20;99.90;;;;;;5047739;28;20229;-87
2023/05/03 04:40:53;;;;;;;9.48;7.55;;;8.20;99.90;;;;;;5051458;28;20218;-90
2023/05/03 04:43:20;;;;;;;11.43;7.72;;;8.00;99.90;;;;;;5049305;28;20201;-89
2023/05/03 04:45:47;;;;;;;11.23;7.97;;;8.00;99.90;;;;;;5052136;28;20202;-91
2023/05/03 04:48:16;;;;;;;10.82;9.02;;;8.00;99.90;;;;;;5048160;28;20199;-89
2023/05/03 04:50:45;;;;;;;13.00;9.15;;;8.20;99.90;;;;;;5219199;22;20225;-85
2023/05/03 04:53:12;;;;;;;12.05;8.80;;;8.20;99.90;;;;;;5068845;28;20194;-88
2023/05/03 04:55:38;;;;;;;14.13;10.93;;;8.40;99.90;;;;;;5066288;28;20200;-85
2023/05/03 05:00:41;;;;;;;14.00;10.35;;;8.60;99.90;;;;;;5140588;23;20229;-91
2023/05/03 05:03:08;;;;;;;15.05;10.80;;;8.70;99.90;;;;;;5053830;28;20205;-90
2023/05/03 05:05:35;;;;;;;14.57;9.98;;;8.80;99.90;;;;;;5073928;28;20197;-92
2023/05/03 05:08:03;;;;;;;13.23;10.27;;;9.00;99.90;;;;;;5052112;28;20248;-89
2023/05/03 05:10:30;;;;;;;15.48;9.77;;;9.10;99.90;;;;;;5066188;28;20651;-89
2023/05/03 05:12:58;;;;;;;16.40;10.40;;;9.20;99.90;;;;;;5061280;28;20205;-88
2023/05/03 05:15:25;;;;;;;12.73;10.80;;;9.10;99.90;;;;;;5050487;28;20657;-89
2023/05/03 05:17:52;;;;;;;17.45;11.60;;;9.00;99.90;;;;;;5050387;28;20221;-88
2023/05/03 05:20:20;;;;;;;15.48;11.45;;;9.00;99.90;;;;;;5050169;28;20665;-90
2023/05/03 05:22:47;;;;;;;16.65;11.93;;;8.90;99.90;;;;;;5069659;28;20747;-88
2023/05/03 05:25:15;;;;;;;14.50;11.52;;;9.00;99.90;;;;;;5055313;28;20201;-89
2023/05/03 05:27:42;;;;;;;15.32;11.85;;;9.10;99.90;;;;;;5064769;28;20302;-87
2023/05/03 05:30:09;;;;;;;14.70;11.90;;;9.00;99.90;;;;;;5065608;28;20197;-89
2023/05/03 05:32:36;;;;;;;17.65;13.02;;;9.10;99.90;;;;;;5064256;28;20198;-88
2023/05/03 05:35:04;;;;;;;18.90;12.88;;;9.20;99.90;;;;;;5065324;28;20260;-90
2023/05/03 05:37:31;;;;;;;17.20;13.30;;;9.40;99.90;;;;;;5070317;28;20203;-88
2023/05/03 05:39:58;;;;;;;17.00;13.82;;;9.50;99.90;;;;;;5051899;28;20250;-88
2023/05/03 05:42:26;;;;;;;17.77;14.05;;;9.40;99.90;;;;;;5055232;28;20202;-89
2023/05/03 05:44:53;;;;;;;27.05;14.30;;;9.40;99.90;;;;;;5059866;28;20197;-88
2023/05/03 05:47:20;;;;;;;22.55;13.57;;;9.40;99.90;;;;;;5060122;28;20204;-87
2023/05/03 05:49:47;;;;;;;21.58;14.73;;;9.40;99.90;;;;;;5067398;28;20236;-88
2023/05/03 05:52:14;;;;;;;24.17;14.35;;;9.40;99.90;;;;;;5068833;28;20197;-87
2023/05/03 05:54:41;;;;;;;20.45;14.25;;;9.50;99.90;;;;;;5062587;28;20241;-90
2023/05/03 05:57:07;;;;;;;27.98;15.05;;;9.60;99.90;;;;;;5068993;28;20193;-90
2023/05/03 05:59:36;;;;;;;22.52;14.88;;;9.40;99.90;;;;;;5068778;28;20229;-90
2023/05/03 06:02:03;;;;;;;24.25;14.40;;;9.30;99.90;;;;;;5049087;28;20294;-87
2023/05/03 06:04:30;;;;;;;30.75;15.20;;;9.10;99.90;;;;;;5058268;28;20678;-87
2023/05/03 06:06:57;;;;;;;23.85;15.50;;;9.00;99.90;;;;;;5055164;28;20686;-88
2023/05/03 06:09:23;;;;;;;22.38;15.20;;;9.00;99.90;;;;;;5059953;28;20202;-88
2023/05/03 06:11:50;;;;;;;28.02;15.88;;;9.10;99.90;;;;;;5066906;28;20185;-88
2023/05/03 06:14:19;;;;;;;45.30;15.15;;;9.10;99.90;;;;;;5065571;28;20316;-88
2023/05/03 06:16:47;;;;;;;53.13;15.85;;;9.10;99.90;;;;;;5054889;28;20210;-88
2023/05/03 06:19:14;;;;;;;34.13;15.52;;;9.00;99.90;;;;;;5066187;28;20244;-89
2023/05/03 06:21:41;;;;;;;40.58;15.40;;;9.00;99.90;;;;;;5052568;28;20255;-88
2023/05/03 06:24:08;;;;;;;22.23;15.52;;;9.00;99.90;;;;;;5070892;28;20209;-89
2023/05/03 06:26:35;;;;;;;44.05;16.08;;;9.00;99.90;;;;;;5064473;28;20206;-88
2023/05/03 06:29:02;;;;;;;38.88;16.70;;;9.00;99.90;;;;;;5067889;28;20572;-88
2023/05/03 06:31:29;;;;;;;35.75;16.52;;;8.90;99.90;;;;;;5070673;28;20198;-88
2023/05/03 06:33:57;;;;;;;19.52;14.65;;;9.00;99.90;;;;;;5070894;28;20209;-88
2023/05/03 06:36:24;;;;;;;44.17;17.17;;;9.00;99.90;;;;;;5046958;28;20198;-89
2023/05/03 06:38:51;;;;;;;37.80;16.92;;;9.10;99.90;;;;;;5067066;28;20201;-88
2023/05/03 06:41:18;;;;;;;31.52;15.50;;;9.10;99.90;;;;;;5071610;28;20266;-88
2023/05/03 06:43:45;;;;;;;27.13;14.93;;;9.20;99.90;;;;;;5060030;28;20190;-88
2023/05/03 06:46:12;;;;;;;27.52;15.25;;;9.30;99.90;;;;;;5047466;28;20193;-88
2023/05/03 06:48:39;;;;;;;40.17;16.20;;;9.30;99.90;;;;;;5044517;28;20198;-88
2023/05/03 06:51:07;;;;;;;35.08;15.48;;;9.30;99.90;;;;;;5066277;28;20224;-88
2023/05/03 06:53:34;;;;;;;45.45;15.43;;;9.40;99.90;;;;;;5065687;28;20193;-89
2023/05/03 06:56:02;;;;;;;27.05;15.30;;;9.40;99.90;;;;;;5068414;28;20218;-89
2023/05/03 06:58:29;;;;;;;25.30;14.90;;;9.40;99.90;;;;;;5064188;28;20202;-89
2023/05/03 07:00:56;;;;;;;36.30;14.30;;;9.40;99.90;;;;;;5061658;28;20217;-88
2023/05/03 07:03:24;;;;;;;24.30;15.40;;;9.50;99.90;;;;;;5073045;28;20190;-89
2023/05/03 07:05:50;;;;;;;45.75;15.25;;;9.40;99.90;;;;;;5073017;28;20201;-89
2023/05/03 07:08:19;;;;;;;25.98;14.55;;;9.30;99.90;;;;;;5069758;28;20284;-89
2023/05/03 07:10:46;;;;;;;29.83;14.82;;;9.30;99.90;;;;;;5054803;28;20194;-89
2023/05/03 07:13:13;;;;;;;24.30;13.88;;;9.40;99.90;;;;;;5071175;28;20251;-88
2023/05/03 07:15:40;;;;;;;33.17;13.40;;;9.50;99.90;;;;;;5071231;28;20625;-89
2023/05/03 07:18:07;;;;;;;23.92;14.00;;;9.50;99.90;;;;;;5071878;28;20233;-88
2023/05/03 07:20:34;;;;;;;23.10;14.00;;;9.50;99.90;;;;;;5064053;28;20691;-88
2023/05/03 07:23:01;;;;;;;24.35;13.80;;;9.50;99.90;;;;;;5067308;28;20653;-88
2023/05/03 07:25:30;;;;;;;24.65;15.13;;;9.50;99.90;;;;;;5062304;28;20202;-87
2023/05/03 07:27:57;;;;;;;22.20;15.38;;;9.60;99.90;;;;;;5071388;28;20586;-85
2023/05/03 07:30:24;;;;;;;18.20;14.13;;;9.60;99.90;;;;;;5063320;28;20220;-88
2023/05/03 07:32:50;;;;;;;27.90;14.75;;;9.60;99.90;;;;;;5043686;28;20692;-87
2023/05/03 07:35:18;;;;;;;18.27;13.93;;;9.60;99.90;;;;;;5068690;28;20212;-87
2023/05/03 07:37:45;;;;;;;21.60;15.23;;;9.90;99.90;;;;;;5070624;28;20201;-87
2023/05/03 07:40:12;;;;;;;19.55;14.05;;;9.90;99.90;;;;;;5071915;28;20225;-92
2023/05/03 07:42:41;;;;;;;18.73;13.48;;;9.90;99.90;;;;;;5075560;28;20193;-90
2023/05/03 07:45:08;;;;;;;20.65;13.85;;;9.90;99.90;;;;;;5070933;28;20209;-90
2023/05/03 07:47:36;;;;;;;19.67;14.13;;;9.90;99.90;;;;;;5070168;28;20190;-90
2023/05/03 07:50:04;;;;;;;19.42;14.10;;;9.90;99.90;;;;;;5068584;28;20202;-89
2023/05/03 07:52:35;;;;;;;20.65;14.90;;;10.00;99.90;;;;;;5069492;28;20201;-91
2023/05/03 07:55:03;;;;;;;22.98;14.52;;;10.20;99.90;;;;;;5067339;28;20209;-91
2023/05/03 07:57:30;;;;;;;24.80;16.15;;;10.50;99.90;;;;;;5046248;28;20206;-90
2023/05/03 07:59:58;;;;;;;22.58;17.00;;;10.50;99.90;;;;;;5052149;28;20216;-93
2023/05/03 08:02:26;;;;;;;20.85;15.70;;;10.60;99.90;;;;;;5057882;28;20206;-92
2023/05/03 08:04:53;;;;;;;21.65;15.13;;;10.70;99.90;;;;;;5062835;28;20208;-91
2023/05/03 08:07:20;;;;;;;21.70;15.93;;;10.90;99.90;;;;;;5046989;28;20673;-91
2023/05/03 08:09:47;;;;;;;20.98;15.57;;;10.90;99.90;;;;;;5075205;28;20193;-90
2023/05/03 08:12:14;;;;;;;23.02;16.08;;;10.80;99.90;;;;;;5075138;28;20206;-85
2023/05/03 08:14:41;;;;;;;23.10;16.25;;;10.80;99.90;;;;;;5083942;28;20198;-87
2023/05/03 08:17:10;;;;;;;23.58;16.60;;;10.70;99.90;;;;;;5091038;28;20213;-89
2023/05/03 08:19:37;;;;;;;23.98;16.63;;;11.10;99.90;;;;;;5077393;28;20622;-91
2023/05/03 08:22:04;;;;;;;23.98;16.98;;;11.10;99.90;;;;;;5045134;28;20222;-91
2023/05/03 08:24:31;;;;;;;23.65;16.73;;;11.30;99.90;;;;;;5066240;28;20197;-90
2023/05/03 08:26:58;;;;;;;22.98;16.67;;;11.50;99.90;;;;;;5067781;28;20210;-94
2023/05/03 08:29:26;;;;;;;24.05;16.77;;;11.60;99.90;;;;;;5051047;28;20281;-91
2023/05/03 08:31:53;;;;;;;19.95;14.98;;;11.80;99.90;;;;;;5051724;28;20197;-91
2023/05/03 08:34:21;;;;;;;21.63;16.00;;;11.80;99.00;;;;;;5064001;28;20200;-91
2023/05/03 08:36:48;;;;;;;20.17;15.93;;;11.70;99.00;;;;;;5067446;28;20197;-88
2023/05/03 08:39:16;;;;;;;23.17;16.65;;;11.50;99.50;;;;;;5070631;28;20193;-92
2023/05/03 08:41:43;;;;;;;23.33;16.52;;;11.50;99.90;;;;;;5065884;28;20247;-87
2023/05/03 08:44:13;;;;;;;26.85;19.98;;;11.50;99.90;;;;;;5060159;28;20193;-89
2023/05/03 08:46:42;;;;;;;23.77;17.10;;;11.70;99.40;;;;;;5069853;28;20753;-90
2023/05/03 08:49:10;;;;;;;27.20;19.15;;;11.70;99.60;;;;;;5070549;28;20203;-86
2023/05/03 08:51:41;;;;;;;28.83;22.00;;;11.70;99.70;;;;;;5049951;28;20204;-88
2023/05/03 08:54:09;;;;;;;20.17;16.25;;;12.00;99.00;;;;;;5044075;28;20206;-89
2023/05/03 08:56:41;;;;;;;22.63;16.33;;;12.10;99.10;;;;;;5065096;28;20659;-86
2023/05/03 08:59:08;;;;;;;19.23;15.27;;;12.20;98.20;;;;;;5030737;28;1119295;-86
2023/05/03 09:01:38;;;;;;;18.02;14.68;;;12.20;98.20;;;;;;5063438;28;20224;-88
2023/05/03 09:04:06;;;;;;;16.52;14.18;;;12.30;97.20;;;;;;5046869;28;20193;-92
2023/05/03 09:06:35;;;;;;;19.88;16.55;;;12.50;96.90;;;;;;5071488;28;20237;-92
2023/05/03 09:09:08;;;;;;;18.95;14.50;;;12.50;97.30;;;;;;5073848;28;20228;-92
2023/05/03 09:11:37;;;;;;;20.35;16.92;;;12.70;97.60;;;;;;5065280;28;20202;-92
2023/05/03 09:14:11;;;;;;;17.63;15.38;;;12.80;96.50;;;;;;5061256;28;20198;-91
2023/05/03 09:16:45;;;;;;;18.30;15.27;;;12.50;96.80;;;;;;5073266;28;20201;-92
2023/05/03 09:19:40;;;;;;;17.27;13.95;;;12.60;96.30;;;;;;5055292;28;20271;-93
2023/05/03 09:22:13;;;;;;;17.25;13.73;;;12.70;97.20;;;;;;5077603;28;20209;-91
2023/05/03 09:24:51;;;;;;;16.58;14.18;;;13.10;96.40;;;;;;5073825;28;20214;-94
2023/05/03 09:27:22;;;;;;;19.40;14.25;;;13.60;95.40;;;;;;5082581;28;20197;-94
2023/05/03 09:29:49;;;;;;;17.15;14.48;;;14.00;94.30;;;;;;5068952;28;20197;-93
2023/05/03 09:32:17;;;;;;;14.45;12.40;;;14.70;93.00;;;;;;5059440;28;20244;-92
2023/05/03 09:34:44;;;;;;;15.98;13.75;;;15.30;89.70;;;;;;5058058;28;20838;-93
2023/05/03 09:37:12;;;;;;;12.50;11.18;;;15.90;86.30;;;;;;5065482;28;20212;-93
2023/05/03 09:39:42;;;;;;;13.02;11.63;;;16.60;75.00;;;;;;5054166;28;20569;-93
2023/05/03 09:42:14;;;;;;;12.05;10.70;;;17.10;64.90;;;;;;5061873;28;20214;-93
2023/05/03 09:44:43;;;;;;;11.10;9.52;;;17.70;56.90;;;;;;5056366;28;20547;-88
2023/05/03 09:47:11;;;;;;;11.98;10.77;;;18.10;50.70;;;;;;5068077;28;20197;-88
2023/05/03 09:49:38;;;;;;;12.40;11.13;;;18.10;47.60;;;;;;5067676;28;20205;-91
2023/05/03 09:52:07;;;;;;;11.55;10.52;;;17.80;53.90;;;;;;5071662;28;20274;-90
2023/05/03 09:54:35;;;;;;;13.48;11.27;;;18.20;45.20;;;;;;5062392;28;20198;-91
2023/05/03 09:57:05;;;;;;;12.50;11.27;;;17.70;42.50;;;;;;5064847;28;20201;-90
2023/05/03 09:59:33;;;;;;;12.63;11.38;;;17.10;56.00;;;;;;5068067;28;20237;-91
2023/05/03 10:02:02;;;;;;;12.73;11.52;;;17.20;54.60;;;;;;5043902;28;20221;-93
2023/05/03 10:04:35;;;;;;;13.05;11.20;;;16.90;53.10;;;;;;5074403;28;20197;-92
2023/05/03 10:07:07;;;;;;;13.15;11.57;;;17.00;59.60;;;;;;5067472;28;20197;-90
2023/05/03 10:09:39;;;;;;;15.15;11.50;;;18.00;45.20;;;;;;5073367;28;20200;-88
2023/05/03 10:12:10;;;;;;;12.77;11.48;;;18.60;44.10;;;;;;5079891;28;20204;-90
2023/05/03 10:14:37;;;;;;;14.00;12.57;;;18.70;50.80;;;;;;5082910;28;20189;-88
2023/05/03 10:17:09;;;;;;;13.70;12.40;;;18.50;43.80;;;;;;5071598;28;20201;-89
2023/05/03 10:19:43;;;;;;;14.25;12.50;;;18.40;43.70;;;;;;5073731;28;20198;-92
2023/05/03 10:22:11;;;;;;;13.38;12.07;;;18.00;46.10;;;;;;5071427;28;20839;-92
2023/05/03 10:25:00;;;;;;;13.18;11.88;;;17.80;45.00;;;;;;5080573;28;20201;-93
2023/05/03 10:27:41;;;;;;;15.85;13.07;;;18.00;51.10;;;;;;5081097;28;20270;-93
2023/05/03 10:30:27;;;;;;;14.52;13.02;;;18.10;47.30;;;;;;5070695;28;20212;-91
2023/05/03 10:35:30;;;;;;;14.18;12.77;;;18.60;40.90;;;;;;5316450;22;20239;-94
2023/05/03 10:37:57;;;;;;;14.38;12.98;;;18.60;38.60;;;;;;5106640;28;20212;-87
2023/05/03 10:40:24;;;;;;;15.18;13.68;;;18.40;42.60;;;;;;5085416;28;20183;-90
2023/05/03 10:42:55;;;;;;;16.95;15.18;;;18.40;53.90;;;;;;5097204;28;20231;-89
2023/05/03 10:45:24;;;;;;;16.38;14.77;;;18.30;49.60;;;;;;5085460;28;20202;-91
2023/05/03 10:48:19;;;;;;;16.35;14.65;;;18.20;44.60;;;;;;5081494;28;20203;-90
2023/05/03 10:50:47;;;;;;;17.02;15.13;;;18.00;60.00;;;;;;5082853;28;20665;-92
2023/05/03 10:53:36;;;;;;;16.42;14.73;;;18.20;54.30;;;;;;5086576;28;20205;-88
2023/05/03 10:56:06;;;;;;;16.10;14.40;;;18.10;43.80;;;;;;5071757;28;20243;-92
2023/05/03 10:58:37;;;;;;;18.10;16.05;;;17.70;49.70;;;;;;5079909;28;20225;-91
2023/05/03 11:01:05;;;;;;;19.63;16.02;;;17.40;53.50;;;;;;5076310;28;20221;-93
2023/05/03 11:03:45;;;;;;;19.90;16.27;;;16.90;54.10;;;;;;5082491;28;20193;-93
2023/05/03 11:06:27;;;;;;;20.38;17.08;;;16.60;64.60;;;;;;5073974;28;20223;-90
2023/05/03 11:08:54;;;;;;;18.50;16.13;;;16.70;62.40;;;;;;5084040;28;20222;-89
2023/05/03 11:11:22;;;;;;;17.33;15.40;;;16.90;81.90;;;;;;5083047;28;20204;-92
2023/05/03 11:13:52;;;;;;;16.42;13.88;;;17.30;57.60;;;;;;5090854;28;20207;-92
2023/05/03 11:16:19;;;;;;;17.10;15.23;;;17.70;53.80;;;;;;5067420;28;20601;-90
2023/05/03 11:18:47;;;;;;;17.38;15.48;;;17.80;53.90;;;;;;5076133;28;20213;-88
2023/05/03 11:21:15;;;;;;;15.30;13.68;;;17.90;49.80;;;;;;5060235;28;20288;-84
2023/05/03 11:23:43;;;;;;;18.85;16.00;;;18.10;47.30;;;;;;5078627;28;20198;-90
2023/05/03 11:26:10;;;;;;;18.67;15.75;;;18.00;47.00;;;;;;5079274;28;20202;-91
2023/05/03 11:28:38;;;;;;;19.15;16.50;;;17.90;47.10;;;;;;5073361;28;20194;-90
2023/05/03 11:31:07;;;;;;;21.15;17.17;;;17.90;48.00;;;;;;5072181;28;20213;-92
2023/05/03 11:33:34;;;;;;;19.60;15.73;;;17.40;60.70;;;;;;5069039;28;20200;-94
2023/05/03 11:36:03;;;;;;;17.52;15.73;;;17.40;53.60;;;;;;5064121;28;20196;-89
2023/05/03 11:38:31;;;;;;;18.80;16.13;;;17.50;53.60;;;;;;5127957;22;20197;-90
2023/05/03 11:40:58;;;;;;;16.40;13.52;;;17.70;53.30;;;;;;5066551;28;20183;-91
2023/05/03 11:43:25;;;;;;;16.23;13.90;;;18.00;43.90;;;;;;5151093;22;20209;-87
2023/05/03 11:45:57;;;;;;;17.40;15.38;;;17.90;38.70;;;;;;5066762;28;20217;-96
2023/05/03 11:48:26;;;;;;;20.10;16.65;;;17.90;45.00;;;;;;5057013;28;20198;-93
2023/05/03 11:50:54;;;;;;;18.95;15.73;;;17.40;46.50;;;;;;5046657;28;20438;-96
2023/05/03 11:53:22;;;;;;;16.25;14.23;;;17.40;65.20;;;;;;5064195;28;20231;-92
2023/05/03 11:55:52;;;;;;;17.42;14.82;;;17.60;55.70;;;;;;5042100;28;20233;-95
2023/05/03 11:58:20;;;;;;;17.95;15.40;;;17.80;47.80;;;;;;5053523;28;20202;-94
2023/05/03 12:00:49;;;;;;;18.95;16.13;;;17.70;50.00;;;;;;5044808;28;20208;-88
2023/05/03 12:05:58;;;;;;;17.73;14.35;;;17.80;47.60;;;;;;5398607;22;20205;-89
2023/05/03 12:08:29;;;;;;;19.98;16.25;;;17.90;45.50;;;;;;5029571;28;20198;-91
2023/05/03 12:10:56;;;;;;;16.15;14.45;;;17.90;47.30;;;;;;5053036;28;20197;-95
2023/05/03 12:13:31;;;;;;;17.35;14.80;;;18.00;43.10;;;;;;5055564;28;20190;-96
2023/05/03 12:15:59;;;;;;;15.00;13.50;;;18.00;42.00;;;;;;5045269;28;20659;-95
2023/05/03 12:18:27;;;;;;;14.73;11.77;;;17.90;40.30;;;;;;5035152;28;20264;-91
2023/05/03 12:20:59;;;;;;;14.30;12.80;;;17.90;37.90;;;;;;5046722;28;20212;-91
2023/05/03 12:23:26;;;;;;;13.20;10.90;;;18.10;36.60;;;;;;5019431;28;20587;-95
2023/05/03 12:25:53;;;;;;;12.93;11.57;;;18.20;37.40;;;;;;5049641;28;20194;-95
2023/05/03 12:28:21;;;;;;;12.40;10.07;;;18.30;36.90;;;;;;5034849;28;20697;-93
2023/05/03 12:30:48;;;;;;;12.32;11.02;;;18.40;30.70;;;;;;5059966;28;20472;-93
2023/05/03 12:33:16;;;;;;;11.00;9.40;;;18.30;30.60;;;;;;5054329;28;20190;-89
2023/05/03 12:35:44;;;;;;;13.52;12.10;;;18.20;30.60;;;;;;5066607;28;20213;-90
2023/05/03 12:38:12;;;;;;;13.85;12.02;;;18.20;32.70;;;;;;5047766;28;20216;-90
2023/05/03 12:40:39;;;;;;;13.30;11.90;;;18.30;33.20;;;;;;5064492;28;20190;-90
2023/05/03 12:45:34;;;;;;;13.30;11.90;;;18.30;35.60;;;;;;5015588;28;20207;-92
2023/05/03 12:48:02;;;;;;;13.13;11.73;;;18.20;30.60;;;;;;5045887;28;20205;-92
2023/05/03 12:50:29;;;;;;;13.93;11.98;;;18.00;32.90;;;;;;5045900;28;20195;-95
2023/05/03 12:52:56;;;;;;;14.18;12.55;;;18.00;34.00;;;;;;5037014;28;20276;-92
2023/05/03 12:55:25;;;;;;;13.40;12.00;;;18.10;34.40;;;;;;5040861;28;20697;-93